sensor_id;sensor_type;location;lat;lon;timestamp;P1;durP1;ratioP1;P2;durP2;ratioP2
53873;SDS011;62246;50.938;4.058;2022-12-18T00:01:00;82.97;;;41.60;;
53873;SDS011;62246;50.938;4.058;2022-12-18T00:03:31;86.40;;;44.58;;
53873;SDS011;62246;50.938;4.058;2022-12-18T00:05:57;87.55;;;43.03;;
53873;SDS011;62246;50.938;4.058;2022-12-18T00:08:23;88.60;;;45.00;;
53873;SDS011;62246;50.938;4.058;2022-12-18T00:10:48;93.78;;;45.42;;
53873;SDS011;62246;50.938;4.058;2022-12-18T00:13:14;83.40;;;42.75;;
53873;SDS011;62246;50.938;4.058;2022-12-18T00:15:39;81.90;;;41.70;;
53873;SDS011;62246;50.938;4.058;2022-12-18T00:18:05;90.65;;;43.85;;
53873;SDS011;62246;50.938;4.058;2022-12-18T00:20:31;89.30;;;43.40;;
53873;SDS011;62246;50.938;4.058;2022-12-18T00:22:56;96.35;;;46.10;;
53873;SDS011;62246;50.938;4.058;2022-12-18T00:25:22;101.90;;;47.15;;
53873;SDS011;62246;50.938;4.058;2022-12-18T00:27:50;97.95;;;46.50;;
53873;SDS011;62246;50.938;4.058;2022-12-18T00:30:16;95.72;;;47.47;;
53873;SDS011;62246;50.938;4.058;2022-12-18T00:32:41;102.78;;;49.05;;
53873;SDS011;62246;50.938;4.058;2022-12-18T00:35:07;100.15;;;47.22;;
53873;SDS011;62246;50.938;4.058;2022-12-18T00:37:33;102.38;;;49.33;;
53873;SDS011;62246;50.938;4.058;2022-12-18T00:39:59;97.72;;;45.55;;
53873;SDS011;62246;50.938;4.058;2022-12-18T00:42:24;90.93;;;44.40;;
53873;SDS011;62246;50.938;4.058;2022-12-18T00:45:09;97.03;;;44.42;;
53873;SDS011;62246;50.938;4.058;2022-12-18T00:47:34;94.30;;;44.50;;
53873;SDS011;62246;50.938;4.058;2022-12-18T00:50:00;86.75;;;40.83;;
53873;SDS011;62246;50.938;4.058;2022-12-18T00:52:25;91.03;;;44.30;;
53873;SDS011;62246;50.938;4.058;2022-12-18T00:54:50;95.85;;;45.00;;
53873;SDS011;62246;50.938;4.058;2022-12-18T00:57:19;90.32;;;43.53;;
53873;SDS011;62246;50.938;4.058;2022-12-18T00:59:44;97.32;;;43.75;;
53873;SDS011;62246;50.938;4.058;2022-12-18T01:02:10;85.43;;;41.92;;
53873;SDS011;62246;50.938;4.058;2022-12-18T01:04:35;87.95;;;43.50;;
53873;SDS011;62246;50.938;4.058;2022-12-18T01:07:01;86.88;;;41.90;;
53873;SDS011;62246;50.938;4.058;2022-12-18T01:09:26;92.18;;;43.40;;
53873;SDS011;62246;50.938;4.058;2022-12-18T01:11:52;85.45;;;42.03;;
53873;SDS011;62246;50.938;4.058;2022-12-18T01:14:17;96.72;;;45.55;;
53873;SDS011;62246;50.938;4.058;2022-12-18T01:16:43;87.88;;;41.78;;
53873;SDS011;62246;50.938;4.058;2022-12-18T01:19:08;88.90;;;42.50;;
53873;SDS011;62246;50.938;4.058;2022-12-18T01:21:34;87.50;;;42.03;;
53873;SDS011;62246;50.938;4.058;2022-12-18T01:24:00;87.35;;;43.45;;
53873;SDS011;62246;50.938;4.058;2022-12-18T01:26:26;96.38;;;45.95;;
53873;SDS011;62246;50.938;4.058;2022-12-18T01:28:54;94.10;;;46.17;;
53873;SDS011;62246;50.938;4.058;2022-12-18T01:31:26;104.07;;;49.00;;
53873;SDS011;62246;50.938;4.058;2022-12-18T01:33:54;104.15;;;46.47;;
53873;SDS011;62246;50.938;4.058;2022-12-18T01:36:21;94.32;;;47.42;;
53873;SDS011;62246;50.938;4.058;2022-12-18T01:38:52;98.18;;;47.10;;
53873;SDS011;62246;50.938;4.058;2022-12-18T01:41:19;94.20;;;48.85;;
53873;SDS011;62246;50.938;4.058;2022-12-18T01:43:51;93.25;;;45.92;;
53873;SDS011;62246;50.938;4.058;2022-12-18T01:48:46;95.60;;;44.97;;
53873;SDS011;62246;50.938;4.058;2022-12-18T01:51:14;107.60;;;49.78;;
53873;SDS011;62246;50.938;4.058;2022-12-18T01:53:41;100.75;;;48.50;;
53873;SDS011;62246;50.938;4.058;2022-12-18T01:56:08;97.70;;;45.83;;
53873;SDS011;62246;50.938;4.058;2022-12-18T01:58:44;95.97;;;45.15;;
53873;SDS011;62246;50.938;4.058;2022-12-18T02:01:18;100.85;;;45.65;;
53873;SDS011;62246;50.938;4.058;2022-12-18T02:03:46;89.35;;;43.63;;
53873;SDS011;62246;50.938;4.058;2022-12-18T02:06:29;98.22;;;44.20;;
53873;SDS011;62246;50.938;4.058;2022-12-18T02:09:14;91.20;;;42.88;;
53873;SDS011;62246;50.938;4.058;2022-12-18T02:11:51;96.78;;;43.50;;
53873;SDS011;62246;50.938;4.058;2022-12-18T02:17:19;97.70;;;44.38;;
53873;SDS011;62246;50.938;4.058;2022-12-18T02:20:10;95.07;;;44.25;;
53873;SDS011;62246;50.938;4.058;2022-12-18T02:22:48;92.97;;;42.80;;
53873;SDS011;62246;50.938;4.058;2022-12-18T02:27:53;88.90;;;41.45;;
53873;SDS011;62246;50.938;4.058;2022-12-18T02:30:23;91.97;;;43.05;;
53873;SDS011;62246;50.938;4.058;2022-12-18T02:32:49;94.22;;;43.15;;
53873;SDS011;62246;50.938;4.058;2022-12-18T02:35:19;88.22;;;39.72;;
53873;SDS011;62246;50.938;4.058;2022-12-18T02:40:14;84.70;;;37.40;;
53873;SDS011;62246;50.938;4.058;2022-12-18T02:42:42;84.95;;;39.72;;
53873;SDS011;62246;50.938;4.058;2022-12-18T02:45:08;90.32;;;41.38;;
53873;SDS011;62246;50.938;4.058;2022-12-18T02:47:35;91.43;;;41.53;;
53873;SDS011;62246;50.938;4.058;2022-12-18T02:50:07;81.68;;;39.50;;
53873;SDS011;62246;50.938;4.058;2022-12-18T02:57:48;91.20;;;40.50;;
53873;SDS011;62246;50.938;4.058;2022-12-18T03:00:18;88.57;;;40.08;;
53873;SDS011;62246;50.938;4.058;2022-12-18T03:03:05;76.45;;;37.15;;
53873;SDS011;62246;50.938;4.058;2022-12-18T03:06:26;80.10;;;38.25;;
53873;SDS011;62246;50.938;4.058;2022-12-18T03:08:44;79.35;;;37.58;;
53873;SDS011;62246;50.938;4.058;2022-12-18T03:11:14;81.95;;;38.42;;
53873;SDS011;62246;50.938;4.058;2022-12-18T03:13:48;78.53;;;36.80;;
53873;SDS011;62246;50.938;4.058;2022-12-18T03:16:24;82.57;;;37.60;;
53873;SDS011;62246;50.938;4.058;2022-12-18T03:19:01;73.88;;;36.22;;
53873;SDS011;62246;50.938;4.058;2022-12-18T03:21:33;86.03;;;37.72;;
53873;SDS011;62246;50.938;4.058;2022-12-18T03:24:08;80.50;;;38.83;;
53873;SDS011;62246;50.938;4.058;2022-12-18T03:26:36;83.22;;;37.85;;
53873;SDS011;62246;50.938;4.058;2022-12-18T03:29:17;78.85;;;38.58;;
53873;SDS011;62246;50.938;4.058;2022-12-18T03:31:51;74.30;;;35.67;;
53873;SDS011;62246;50.938;4.058;2022-12-18T03:34:23;77.53;;;36.25;;
53873;SDS011;62246;50.938;4.058;2022-12-18T03:36:53;74.55;;;36.90;;
53873;SDS011;62246;50.938;4.058;2022-12-18T03:39:19;78.68;;;36.35;;
53873;SDS011;62246;50.938;4.058;2022-12-18T03:41:47;78.40;;;37.15;;
53873;SDS011;62246;50.938;4.058;2022-12-18T03:44:57;79.10;;;36.55;;
53873;SDS011;62246;50.938;4.058;2022-12-18T03:50:20;82.38;;;37.42;;
53873;SDS011;62246;50.938;4.058;2022-12-18T03:52:53;83.35;;;37.45;;
53873;SDS011;62246;50.938;4.058;2022-12-18T03:55:32;76.95;;;35.65;;
53873;SDS011;62246;50.938;4.058;2022-12-18T03:58:00;75.72;;;34.83;;
53873;SDS011;62246;50.938;4.058;2022-12-18T04:00:28;73.32;;;34.72;;
53873;SDS011;62246;50.938;4.058;2022-12-18T04:02:55;81.05;;;36.55;;
53873;SDS011;62246;50.938;4.058;2022-12-18T04:05:25;76.45;;;34.70;;
53873;SDS011;62246;50.938;4.058;2022-12-18T04:07:52;77.82;;;36.05;;
53873;SDS011;62246;50.938;4.058;2022-12-18T04:10:19;76.93;;;34.80;;
53873;SDS011;62246;50.938;4.058;2022-12-18T04:12:45;72.57;;;33.75;;
53873;SDS011;62246;50.938;4.058;2022-12-18T04:15:10;75.60;;;35.15;;
53873;SDS011;62246;50.938;4.058;2022-12-18T04:17:37;70.55;;;33.97;;
53873;SDS011;62246;50.938;4.058;2022-12-18T04:20:04;71.45;;;33.40;;
53873;SDS011;62246;50.938;4.058;2022-12-18T04:22:30;74.63;;;35.40;;
53873;SDS011;62246;50.938;4.058;2022-12-18T04:24:55;73.45;;;34.28;;
53873;SDS011;62246;50.938;4.058;2022-12-18T04:27:21;78.15;;;35.97;;
53873;SDS011;62246;50.938;4.058;2022-12-18T04:29:47;77.57;;;35.90;;
53873;SDS011;62246;50.938;4.058;2022-12-18T04:32:12;79.80;;;35.47;;
53873;SDS011;62246;50.938;4.058;2022-12-18T04:34:38;72.07;;;33.85;;
53873;SDS011;62246;50.938;4.058;2022-12-18T04:37:03;76.55;;;35.10;;
53873;SDS011;62246;50.938;4.058;2022-12-18T04:39:29;78.80;;;36.10;;
53873;SDS011;62246;50.938;4.058;2022-12-18T04:41:54;74.15;;;34.45;;
53873;SDS011;62246;50.938;4.058;2022-12-18T04:44:20;74.75;;;34.75;;
53873;SDS011;62246;50.938;4.058;2022-12-18T04:46:45;65.40;;;31.90;;
53873;SDS011;62246;50.938;4.058;2022-12-18T04:49:11;68.28;;;33.03;;
53873;SDS011;62246;50.938;4.058;2022-12-18T04:51:36;72.45;;;33.08;;
53873;SDS011;62246;50.938;4.058;2022-12-18T04:54:02;70.20;;;32.78;;
53873;SDS011;62246;50.938;4.058;2022-12-18T04:56:28;69.40;;;32.53;;
53873;SDS011;62246;50.938;4.058;2022-12-18T04:58:53;70.97;;;33.33;;
53873;SDS011;62246;50.938;4.058;2022-12-18T05:01:18;67.97;;;31.23;;
53873;SDS011;62246;50.938;4.058;2022-12-18T05:03:44;67.97;;;32.75;;
53873;SDS011;62246;50.938;4.058;2022-12-18T05:06:10;66.53;;;31.30;;
53873;SDS011;62246;50.938;4.058;2022-12-18T05:08:35;70.30;;;32.90;;
53873;SDS011;62246;50.938;4.058;2022-12-18T05:11:04;70.90;;;32.33;;
53873;SDS011;62246;50.938;4.058;2022-12-18T05:13:32;60.65;;;28.98;;
53873;SDS011;62246;50.938;4.058;2022-12-18T05:15:59;68.22;;;31.63;;
53873;SDS011;62246;50.938;4.058;2022-12-18T05:18:25;69.20;;;32.15;;
53873;SDS011;62246;50.938;4.058;2022-12-18T05:20:51;60.67;;;30.70;;
53873;SDS011;62246;50.938;4.058;2022-12-18T05:23:18;68.80;;;32.00;;
53873;SDS011;62246;50.938;4.058;2022-12-18T05:25:51;62.80;;;28.52;;
53873;SDS011;62246;50.938;4.058;2022-12-18T05:28:18;62.40;;;28.65;;
53873;SDS011;62246;50.938;4.058;2022-12-18T05:30:51;53.38;;;27.27;;
53873;SDS011;62246;50.938;4.058;2022-12-18T05:33:18;68.20;;;30.75;;
53873;SDS011;62246;50.938;4.058;2022-12-18T05:35:50;65.45;;;30.83;;
53873;SDS011;62246;50.938;4.058;2022-12-18T05:38:16;67.25;;;30.42;;
53873;SDS011;62246;50.938;4.058;2022-12-18T05:40:42;64.13;;;30.88;;
53873;SDS011;62246;50.938;4.058;2022-12-18T05:43:08;68.55;;;31.80;;
53873;SDS011;62246;50.938;4.058;2022-12-18T05:45:36;60.88;;;29.30;;
53873;SDS011;62246;50.938;4.058;2022-12-18T05:48:03;59.13;;;28.42;;
53873;SDS011;62246;50.938;4.058;2022-12-18T05:50:29;59.17;;;27.85;;
53873;SDS011;62246;50.938;4.058;2022-12-18T05:52:54;63.10;;;29.92;;
53873;SDS011;62246;50.938;4.058;2022-12-18T05:55:19;61.80;;;30.02;;
53873;SDS011;62246;50.938;4.058;2022-12-18T05:57:45;61.17;;;29.50;;
53873;SDS011;62246;50.938;4.058;2022-12-18T06:00:10;63.78;;;28.73;;
53873;SDS011;62246;50.938;4.058;2022-12-18T06:02:36;58.85;;;28.55;;
53873;SDS011;62246;50.938;4.058;2022-12-18T06:05:01;57.63;;;28.75;;
53873;SDS011;62246;50.938;4.058;2022-12-18T06:07:27;63.47;;;29.30;;
53873;SDS011;62246;50.938;4.058;2022-12-18T06:09:53;61.03;;;29.52;;
53873;SDS011;62246;50.938;4.058;2022-12-18T06:12:18;67.53;;;30.20;;
53873;SDS011;62246;50.938;4.058;2022-12-18T06:14:44;58.05;;;27.67;;
53873;SDS011;62246;50.938;4.058;2022-12-18T06:17:09;60.20;;;27.75;;
53873;SDS011;62246;50.938;4.058;2022-12-18T06:19:34;58.72;;;28.75;;
53873;SDS011;62246;50.938;4.058;2022-12-18T06:22:00;63.83;;;28.88;;
53873;SDS011;62246;50.938;4.058;2022-12-18T06:24:25;64.65;;;30.55;;
53873;SDS011;62246;50.938;4.058;2022-12-18T06:26:51;65.70;;;29.80;;
53873;SDS011;62246;50.938;4.058;2022-12-18T06:29:16;56.08;;;27.17;;
53873;SDS011;62246;50.938;4.058;2022-12-18T06:31:42;55.22;;;26.67;;
53873;SDS011;62246;50.938;4.058;2022-12-18T06:34:07;53.38;;;26.00;;
53873;SDS011;62246;50.938;4.058;2022-12-18T06:36:33;57.35;;;27.95;;
53873;SDS011;62246;50.938;4.058;2022-12-18T06:38:59;59.28;;;27.52;;
53873;SDS011;62246;50.938;4.058;2022-12-18T06:41:24;54.42;;;27.80;;
53873;SDS011;62246;50.938;4.058;2022-12-18T06:43:50;57.20;;;27.50;;
53873;SDS011;62246;50.938;4.058;2022-12-18T06:46:15;59.25;;;27.95;;
53873;SDS011;62246;50.938;4.058;2022-12-18T06:48:41;60.42;;;28.60;;
53873;SDS011;62246;50.938;4.058;2022-12-18T06:51:06;59.85;;;28.30;;
53873;SDS011;62246;50.938;4.058;2022-12-18T06:53:32;57.53;;;27.95;;
53873;SDS011;62246;50.938;4.058;2022-12-18T06:55:59;62.10;;;28.90;;
53873;SDS011;62246;50.938;4.058;2022-12-18T06:58:25;62.63;;;28.27;;
53873;SDS011;62246;50.938;4.058;2022-12-18T07:00:52;59.63;;;28.92;;
53873;SDS011;62246;50.938;4.058;2022-12-18T07:03:17;60.47;;;28.60;;
53873;SDS011;62246;50.938;4.058;2022-12-18T07:05:42;55.42;;;27.17;;
53873;SDS011;62246;50.938;4.058;2022-12-18T07:08:08;52.78;;;26.67;;
53873;SDS011;62246;50.938;4.058;2022-12-18T07:10:33;52.50;;;26.38;;
53873;SDS011;62246;50.938;4.058;2022-12-18T07:12:59;54.17;;;27.10;;
53873;SDS011;62246;50.938;4.058;2022-12-18T07:15:24;57.95;;;27.58;;
53873;SDS011;62246;50.938;4.058;2022-12-18T07:17:49;55.83;;;27.10;;
53873;SDS011;62246;50.938;4.058;2022-12-18T07:20:15;55.72;;;26.73;;
53873;SDS011;62246;50.938;4.058;2022-12-18T07:22:40;54.65;;;26.98;;
53873;SDS011;62246;50.938;4.058;2022-12-18T07:25:06;54.13;;;26.63;;
53873;SDS011;62246;50.938;4.058;2022-12-18T07:27:32;49.60;;;25.95;;
53873;SDS011;62246;50.938;4.058;2022-12-18T07:29:57;50.45;;;24.85;;
53873;SDS011;62246;50.938;4.058;2022-12-18T07:32:23;54.97;;;25.60;;
53873;SDS011;62246;50.938;4.058;2022-12-18T07:34:48;53.88;;;25.77;;
53873;SDS011;62246;50.938;4.058;2022-12-18T07:37:14;51.88;;;25.38;;
53873;SDS011;62246;50.938;4.058;2022-12-18T07:39:39;55.55;;;26.20;;
53873;SDS011;62246;50.938;4.058;2022-12-18T07:42:05;47.40;;;24.45;;
53873;SDS011;62246;50.938;4.058;2022-12-18T07:44:48;47.80;;;25.42;;
53873;SDS011;62246;50.938;4.058;2022-12-18T07:47:14;47.80;;;23.40;;
53873;SDS011;62246;50.938;4.058;2022-12-18T07:49:39;54.30;;;24.65;;
53873;SDS011;62246;50.938;4.058;2022-12-18T07:52:05;51.05;;;24.60;;
53873;SDS011;62246;50.938;4.058;2022-12-18T07:54:30;52.90;;;25.23;;
53873;SDS011;62246;50.938;4.058;2022-12-18T07:56:55;52.95;;;25.58;;
53873;SDS011;62246;50.938;4.058;2022-12-18T07:59:21;46.33;;;23.65;;
53873;SDS011;62246;50.938;4.058;2022-12-18T08:01:46;48.67;;;24.85;;
53873;SDS011;62246;50.938;4.058;2022-12-18T08:04:12;47.35;;;23.38;;
53873;SDS011;62246;50.938;4.058;2022-12-18T08:06:37;53.22;;;25.75;;
53873;SDS011;62246;50.938;4.058;2022-12-18T08:09:03;48.28;;;24.10;;
53873;SDS011;62246;50.938;4.058;2022-12-18T08:11:28;49.85;;;26.17;;
53873;SDS011;62246;50.938;4.058;2022-12-18T08:13:54;51.65;;;26.30;;
53873;SDS011;62246;50.938;4.058;2022-12-18T08:16:20;53.35;;;26.80;;
53873;SDS011;62246;50.938;4.058;2022-12-18T08:18:47;50.70;;;25.67;;
53873;SDS011;62246;50.938;4.058;2022-12-18T08:21:16;50.25;;;25.77;;
53873;SDS011;62246;50.938;4.058;2022-12-18T08:23:52;51.78;;;24.50;;
53873;SDS011;62246;50.938;4.058;2022-12-18T08:26:20;45.55;;;23.13;;
53873;SDS011;62246;50.938;4.058;2022-12-18T08:28:46;48.55;;;25.40;;
53873;SDS011;62246;50.938;4.058;2022-12-18T08:31:11;49.65;;;24.25;;
53873;SDS011;62246;50.938;4.058;2022-12-18T08:33:37;46.47;;;23.60;;
53873;SDS011;62246;50.938;4.058;2022-12-18T08:36:04;47.25;;;22.50;;
53873;SDS011;62246;50.938;4.058;2022-12-18T08:38:31;47.30;;;24.40;;
53873;SDS011;62246;50.938;4.058;2022-12-18T08:41:16;49.03;;;23.98;;
53873;SDS011;62246;50.938;4.058;2022-12-18T08:43:42;47.03;;;23.92;;
53873;SDS011;62246;50.938;4.058;2022-12-18T08:46:26;49.72;;;25.88;;
53873;SDS011;62246;50.938;4.058;2022-12-18T08:48:56;54.67;;;26.90;;
53873;SDS011;62246;50.938;4.058;2022-12-18T08:51:21;51.38;;;27.48;;
53873;SDS011;62246;50.938;4.058;2022-12-18T08:53:47;52.33;;;27.63;;
53873;SDS011;62246;50.938;4.058;2022-12-18T08:56:13;57.92;;;28.25;;
53873;SDS011;62246;50.938;4.058;2022-12-18T08:58:39;57.58;;;28.55;;
53873;SDS011;62246;50.938;4.058;2022-12-18T09:01:06;53.40;;;28.73;;
53873;SDS011;62246;50.938;4.058;2022-12-18T09:03:36;56.70;;;29.33;;
53873;SDS011;62246;50.938;4.058;2022-12-18T09:06:02;59.97;;;29.98;;
53873;SDS011;62246;50.938;4.058;2022-12-18T09:08:28;58.00;;;31.45;;
53873;SDS011;62246;50.938;4.058;2022-12-18T09:10:53;64.72;;;35.20;;
53873;SDS011;62246;50.938;4.058;2022-12-18T09:13:20;71.15;;;36.47;;
53873;SDS011;62246;50.938;4.058;2022-12-18T09:15:47;62.90;;;33.38;;
53873;SDS011;62246;50.938;4.058;2022-12-18T09:18:15;61.38;;;32.53;;
53873;SDS011;62246;50.938;4.058;2022-12-18T09:20:41;59.47;;;32.28;;
53873;SDS011;62246;50.938;4.058;2022-12-18T09:23:07;66.88;;;36.03;;
53873;SDS011;62246;50.938;4.058;2022-12-18T09:25:34;72.47;;;39.00;;
53873;SDS011;62246;50.938;4.058;2022-12-18T09:28:04;67.57;;;33.72;;
53873;SDS011;62246;50.938;4.058;2022-12-18T09:30:36;63.47;;;34.92;;
53873;SDS011;62246;50.938;4.058;2022-12-18T09:33:03;62.65;;;32.83;;
53873;SDS011;62246;50.938;4.058;2022-12-18T09:35:28;60.22;;;30.77;;
53873;SDS011;62246;50.938;4.058;2022-12-18T09:37:54;53.13;;;28.05;;
53873;SDS011;62246;50.938;4.058;2022-12-18T09:40:21;52.30;;;25.67;;
53873;SDS011;62246;50.938;4.058;2022-12-18T09:42:51;50.38;;;24.15;;
53873;SDS011;62246;50.938;4.058;2022-12-18T09:45:20;50.05;;;24.23;;
53873;SDS011;62246;50.938;4.058;2022-12-18T09:47:46;36.60;;;19.52;;
53873;SDS011;62246;50.938;4.058;2022-12-18T09:52:45;35.80;;;17.40;;
53873;SDS011;62246;50.938;4.058;2022-12-18T09:55:25;30.35;;;14.95;;
53873;SDS011;62246;50.938;4.058;2022-12-18T10:00:38;31.73;;;13.85;;
53873;SDS011;62246;50.938;4.058;2022-12-18T10:03:11;27.23;;;14.10;;
53873;SDS011;62246;50.938;4.058;2022-12-18T10:13:54;22.73;;;11.82;;
53873;SDS011;62246;50.938;4.058;2022-12-18T10:16:29;23.65;;;11.57;;
53873;SDS011;62246;50.938;4.058;2022-12-18T10:19:21;24.85;;;11.45;;
53873;SDS011;62246;50.938;4.058;2022-12-18T10:22:10;27.95;;;11.93;;
53873;SDS011;62246;50.938;4.058;2022-12-18T10:27:15;24.98;;;11.55;;
53873;SDS011;62246;50.938;4.058;2022-12-18T10:29:42;25.63;;;10.85;;
53873;SDS011;62246;50.938;4.058;2022-12-18T10:32:13;30.45;;;12.30;;
53873;SDS011;62246;50.938;4.058;2022-12-18T10:34:44;25.65;;;12.00;;
53873;SDS011;62246;50.938;4.058;2022-12-18T10:37:12;23.98;;;11.80;;
53873;SDS011;62246;50.938;4.058;2022-12-18T10:39:42;26.75;;;12.50;;
53873;SDS011;62246;50.938;4.058;2022-12-18T10:42:16;25.98;;;11.55;;
53873;SDS011;62246;50.938;4.058;2022-12-18T10:44:43;26.05;;;11.00;;
53873;SDS011;62246;50.938;4.058;2022-12-18T10:47:11;26.60;;;11.02;;
53873;SDS011;62246;50.938;4.058;2022-12-18T10:49:50;23.92;;;11.25;;
53873;SDS011;62246;50.938;4.058;2022-12-18T10:57:41;23.67;;;10.45;;
53873;SDS011;62246;50.938;4.058;2022-12-18T11:00:20;25.52;;;10.90;;
53873;SDS011;62246;50.938;4.058;2022-12-18T11:02:55;24.30;;;13.07;;
53873;SDS011;62246;50.938;4.058;2022-12-18T11:05:34;25.67;;;12.07;;
53873;SDS011;62246;50.938;4.058;2022-12-18T11:08:02;29.05;;;11.70;;
53873;SDS011;62246;50.938;4.058;2022-12-18T11:10:32;24.40;;;12.45;;
53873;SDS011;62246;50.938;4.058;2022-12-18T11:16:01;25.67;;;12.70;;
53873;SDS011;62246;50.938;4.058;2022-12-18T11:18:33;23.75;;;12.15;;
53873;SDS011;62246;50.938;4.058;2022-12-18T11:21:08;27.40;;;13.65;;
53873;SDS011;62246;50.938;4.058;2022-12-18T11:23:36;26.35;;;13.23;;
53873;SDS011;62246;50.938;4.058;2022-12-18T11:26:09;25.10;;;11.88;;
53873;SDS011;62246;50.938;4.058;2022-12-18T11:31:26;23.65;;;11.63;;
53873;SDS011;62246;50.938;4.058;2022-12-18T11:33:58;24.25;;;11.43;;
53873;SDS011;62246;50.938;4.058;2022-12-18T11:36:28;26.10;;;12.35;;
53873;SDS011;62246;50.938;4.058;2022-12-18T11:38:59;26.77;;;12.63;;
53873;SDS011;62246;50.938;4.058;2022-12-18T11:44:28;24.55;;;12.27;;
53873;SDS011;62246;50.938;4.058;2022-12-18T11:47:02;26.08;;;12.57;;
53873;SDS011;62246;50.938;4.058;2022-12-18T11:49:34;28.15;;;13.73;;
53873;SDS011;62246;50.938;4.058;2022-12-18T11:54:52;25.30;;;12.80;;
53873;SDS011;62246;50.938;4.058;2022-12-18T11:57:32;29.33;;;13.82;;
53873;SDS011;62246;50.938;4.058;2022-12-18T12:00:15;27.30;;;13.77;;
53873;SDS011;62246;50.938;4.058;2022-12-18T12:11:12;27.40;;;12.20;;
53873;SDS011;62246;50.938;4.058;2022-12-18T12:22:02;27.83;;;12.20;;
53873;SDS011;62246;50.938;4.058;2022-12-18T12:35:40;27.85;;;13.02;;
53873;SDS011;62246;50.938;4.058;2022-12-18T12:38:17;27.60;;;12.23;;
53873;SDS011;62246;50.938;4.058;2022-12-18T12:40:49;28.67;;;12.80;;
53873;SDS011;62246;50.938;4.058;2022-12-18T12:43:24;27.38;;;12.38;;
53873;SDS011;62246;50.938;4.058;2022-12-18T12:46:05;27.48;;;13.15;;
53873;SDS011;62246;50.938;4.058;2022-12-18T12:53:49;27.63;;;12.23;;
53873;SDS011;62246;50.938;4.058;2022-12-18T12:56:15;27.63;;;12.55;;
53873;SDS011;62246;50.938;4.058;2022-12-18T13:09:13;28.52;;;13.35;;
53873;SDS011;62246;50.938;4.058;2022-12-18T13:11:39;26.05;;;13.07;;
53873;SDS011;62246;50.938;4.058;2022-12-18T13:14:31;26.83;;;13.10;;
53873;SDS011;62246;50.938;4.058;2022-12-18T13:19:41;29.50;;;13.20;;
53873;SDS011;62246;50.938;4.058;2022-12-18T13:22:20;30.15;;;13.90;;
53873;SDS011;62246;50.938;4.058;2022-12-18T13:24:53;30.00;;;13.52;;
53873;SDS011;62246;50.938;4.058;2022-12-18T13:40:57;33.28;;;14.88;;
53873;SDS011;62246;50.938;4.058;2022-12-18T13:43:27;32.15;;;14.77;;
53873;SDS011;62246;50.938;4.058;2022-12-18T13:46:06;27.88;;;13.60;;
53873;SDS011;62246;50.938;4.058;2022-12-18T13:48:50;34.08;;;14.63;;
53873;SDS011;62246;50.938;4.058;2022-12-18T13:51:19;37.70;;;16.38;;
53873;SDS011;62246;50.938;4.058;2022-12-18T13:53:53;34.15;;;15.07;;
53873;SDS011;62246;50.938;4.058;2022-12-18T13:56:22;34.92;;;14.90;;
53873;SDS011;62246;50.938;4.058;2022-12-18T13:59:03;38.38;;;16.73;;
53873;SDS011;62246;50.938;4.058;2022-12-18T14:01:41;35.75;;;16.40;;
53873;SDS011;62246;50.938;4.058;2022-12-18T14:04:50;35.20;;;16.00;;
53873;SDS011;62246;50.938;4.058;2022-12-18T14:07:04;33.53;;;15.52;;
53873;SDS011;62246;50.938;4.058;2022-12-18T14:10:32;36.22;;;15.10;;
53873;SDS011;62246;50.938;4.058;2022-12-18T14:12:40;36.20;;;16.48;;
53873;SDS011;62246;50.938;4.058;2022-12-18T14:17:56;37.35;;;16.17;;
53873;SDS011;62246;50.938;4.058;2022-12-18T14:20:24;35.50;;;15.30;;
53873;SDS011;62246;50.938;4.058;2022-12-18T14:22:54;34.28;;;15.23;;
53873;SDS011;62246;50.938;4.058;2022-12-18T14:25:22;38.60;;;15.88;;
53873;SDS011;62246;50.938;4.058;2022-12-18T14:27:50;37.78;;;16.50;;
53873;SDS011;62246;50.938;4.058;2022-12-18T14:30:37;34.55;;;15.85;;
53873;SDS011;62246;50.938;4.058;2022-12-18T14:35:34;35.80;;;16.40;;
53873;SDS011;62246;50.938;4.058;2022-12-18T14:40:52;34.40;;;15.77;;
53873;SDS011;62246;50.938;4.058;2022-12-18T14:43:39;36.13;;;14.48;;
53873;SDS011;62246;50.938;4.058;2022-12-18T14:48:57;38.22;;;15.20;;
53873;SDS011;62246;50.938;4.058;2022-12-18T14:51:25;36.55;;;16.38;;
53873;SDS011;62246;50.938;4.058;2022-12-18T14:53:55;39.55;;;16.50;;
53873;SDS011;62246;50.938;4.058;2022-12-18T14:56:28;37.33;;;17.08;;
53873;SDS011;62246;50.938;4.058;2022-12-18T14:58:57;40.85;;;16.60;;
53873;SDS011;62246;50.938;4.058;2022-12-18T15:01:28;35.17;;;14.95;;
53873;SDS011;62246;50.938;4.058;2022-12-18T15:03:57;36.83;;;15.32;;
53873;SDS011;62246;50.938;4.058;2022-12-18T15:06:26;38.08;;;15.15;;
53873;SDS011;62246;50.938;4.058;2022-12-18T15:08:53;34.50;;;14.77;;
53873;SDS011;62246;50.938;4.058;2022-12-18T15:11:33;39.25;;;16.27;;
53873;SDS011;62246;50.938;4.058;2022-12-18T15:17:06;39.13;;;15.88;;
53873;SDS011;62246;50.938;4.058;2022-12-18T15:19:41;34.50;;;15.40;;
53873;SDS011;62246;50.938;4.058;2022-12-18T15:24:54;36.50;;;15.40;;
53873;SDS011;62246;50.938;4.058;2022-12-18T15:27:26;36.30;;;16.00;;
53873;SDS011;62246;50.938;4.058;2022-12-18T15:30:02;42.10;;;16.52;;
53873;SDS011;62246;50.938;4.058;2022-12-18T15:32:42;37.80;;;16.02;;
53873;SDS011;62246;50.938;4.058;2022-12-18T15:37:36;39.58;;;16.70;;
53873;SDS011;62246;50.938;4.058;2022-12-18T15:40:02;35.25;;;14.43;;
53873;SDS011;62246;50.938;4.058;2022-12-18T15:42:28;39.83;;;16.48;;
53873;SDS011;62246;50.938;4.058;2022-12-18T15:45:13;38.08;;;15.48;;
53873;SDS011;62246;50.938;4.058;2022-12-18T15:47:39;39.83;;;16.38;;
53873;SDS011;62246;50.938;4.058;2022-12-18T15:50:06;37.72;;;15.85;;
53873;SDS011;62246;50.938;4.058;2022-12-18T15:52:33;37.95;;;15.85;;
53873;SDS011;62246;50.938;4.058;2022-12-18T15:55:05;38.00;;;15.98;;
53873;SDS011;62246;50.938;4.058;2022-12-18T15:57:55;31.70;;;15.02;;
53873;SDS011;62246;50.938;4.058;2022-12-18T16:00:20;38.95;;;16.30;;
53873;SDS011;62246;50.938;4.058;2022-12-18T16:02:46;37.35;;;16.13;;
53873;SDS011;62246;50.938;4.058;2022-12-18T16:05:13;35.13;;;14.48;;
53873;SDS011;62246;50.938;4.058;2022-12-18T16:07:40;40.25;;;16.77;;
53873;SDS011;62246;50.938;4.058;2022-12-18T16:10:05;34.78;;;15.68;;
53873;SDS011;62246;50.938;4.058;2022-12-18T16:12:31;36.20;;;15.75;;
53873;SDS011;62246;50.938;4.058;2022-12-18T16:14:57;40.95;;;16.00;;
53873;SDS011;62246;50.938;4.058;2022-12-18T16:17:23;36.78;;;15.57;;
53873;SDS011;62246;50.938;4.058;2022-12-18T16:19:48;36.55;;;15.98;;
53873;SDS011;62246;50.938;4.058;2022-12-18T16:22:17;40.13;;;15.90;;
53873;SDS011;62246;50.938;4.058;2022-12-18T16:24:47;42.63;;;15.50;;
53873;SDS011;62246;50.938;4.058;2022-12-18T16:27:13;36.25;;;14.70;;
53873;SDS011;62246;50.938;4.058;2022-12-18T16:29:39;35.95;;;15.32;;
53873;SDS011;62246;50.938;4.058;2022-12-18T16:32:04;35.53;;;15.27;;
53873;SDS011;62246;50.938;4.058;2022-12-18T16:34:30;36.58;;;15.38;;
53873;SDS011;62246;50.938;4.058;2022-12-18T16:36:59;33.92;;;14.07;;
53873;SDS011;62246;50.938;4.058;2022-12-18T16:39:26;40.03;;;16.13;;
53873;SDS011;62246;50.938;4.058;2022-12-18T16:41:52;34.67;;;15.25;;
53873;SDS011;62246;50.938;4.058;2022-12-18T16:44:18;37.92;;;16.38;;